KHPN

Westchester County  Airport

White Plains, New York, USA

KHPN 191729Z 1918/2018 30022G32KT P6SM BKN040 FM192200 29017G25KT P6SM SCT045 FM200300 29014G21KT P6SM SCT050 AMD NOT SKED

Issued Valid From Valid To
Nov-19 @ 17:29 UTC
(2 hours ago)
Nov-19 @ 18:00 UTC
(2 hours ago)
Nov-20 @ 18:00 UTC
(in 22 hours)
Nov-19 @ 18:00 -Nov-19 @ 22:00
Wind Visibility Clouds
300° at 22 knots
 Gusting to 32 knots
Greater than 6 miles
  • Broken at 4,000' AGL
From Nov-19 @ 22:00 -Nov-20 @ 03:00
Wind Visibility Clouds
290° at 17 knots
 Gusting to 25 knots
Greater than 6 miles
  • Scattered at 4,500' AGL
From Nov-20 @ 03:00 -Nov-20 @ 18:00
Wind Visibility Clouds
290° at 14 knots
 Gusting to 21 knots
Greater than 6 miles
  • Scattered at 5,000' AGL
Issued Nov-19 @ 17:29 UTC
(2 hours ago)
Valid From Nov-19 @ 18:00 UTC
(2 hours ago)
Valid To Nov-20 @ 18:00 UTC
(in 22 hours)
Nov-19 @ 18:00 - Nov-19 @ 22:00
Wind Visibility
300° at 22 knots
 Gusting to 32 knots
Greater than 6 miles
Clouds
  • Broken at 4,000' AGL
From Nov-19 @ 22:00 - Nov-20 @ 03:00
Wind Visibility
290° at 17 knots
 Gusting to 25 knots
Greater than 6 miles
Clouds
  • Scattered at 4,500' AGL
From Nov-20 @ 03:00 - Nov-20 @ 18:00
Wind Visibility
290° at 14 knots
 Gusting to 21 knots
Greater than 6 miles
Clouds
  • Scattered at 5,000' AGL